sensor_id;sensor_type;location;lat;lon;timestamp;P1;durP1;ratioP1;P2;durP2;ratioP2
1839;SDS011;920;48.944;9.148;2023-11-22T00:00:12;3.83;;;3.00;;
1839;SDS011;920;48.944;9.148;2023-11-22T00:02:39;3.87;;;3.13;;
1839;SDS011;920;48.944;9.148;2023-11-22T00:05:06;4.10;;;3.10;;
1839;SDS011;920;48.944;9.148;2023-11-22T00:07:34;3.50;;;2.90;;
1839;SDS011;920;48.944;9.148;2023-11-22T00:10:03;3.73;;;3.00;;
1839;SDS011;920;48.944;9.148;2023-11-22T00:12:31;4.40;;;3.53;;
1839;SDS011;920;48.944;9.148;2023-11-22T00:15:02;3.77;;;3.10;;
1839;SDS011;920;48.944;9.148;2023-11-22T00:17:31;4.80;;;3.63;;
1839;SDS011;920;48.944;9.148;2023-11-22T00:19:58;4.07;;;3.03;;
1839;SDS011;920;48.944;9.148;2023-11-22T00:22:25;3.60;;;3.10;;
1839;SDS011;920;48.944;9.148;2023-11-22T00:24:52;4.87;;;3.60;;
1839;SDS011;920;48.944;9.148;2023-11-22T00:27:20;4.23;;;3.50;;
1839;SDS011;920;48.944;9.148;2023-11-22T00:29:47;3.97;;;3.17;;
1839;SDS011;920;48.944;9.148;2023-11-22T00:32:14;4.30;;;3.13;;
1839;SDS011;920;48.944;9.148;2023-11-22T00:34:41;4.03;;;3.30;;
1839;SDS011;920;48.944;9.148;2023-11-22T00:37:07;4.07;;;3.67;;
1839;SDS011;920;48.944;9.148;2023-11-22T00:39:34;3.80;;;3.00;;
1839;SDS011;920;48.944;9.148;2023-11-22T00:42:00;4.30;;;2.90;;
1839;SDS011;920;48.944;9.148;2023-11-22T00:44:28;4.03;;;3.20;;
1839;SDS011;920;48.944;9.148;2023-11-22T00:46:53;4.30;;;3.20;;
1839;SDS011;920;48.944;9.148;2023-11-22T00:49:20;3.37;;;2.77;;
1839;SDS011;920;48.944;9.148;2023-11-22T00:51:47;3.90;;;3.17;;
1839;SDS011;920;48.944;9.148;2023-11-22T00:54:14;3.43;;;2.80;;
1839;SDS011;920;48.944;9.148;2023-11-22T00:56:41;3.30;;;2.80;;
1839;SDS011;920;48.944;9.148;2023-11-22T00:59:08;3.97;;;3.47;;
1839;SDS011;920;48.944;9.148;2023-11-22T01:01:36;4.10;;;3.20;;
1839;SDS011;920;48.944;9.148;2023-11-22T01:04:03;3.53;;;2.80;;
1839;SDS011;920;48.944;9.148;2023-11-22T01:06:33;3.83;;;3.10;;
1839;SDS011;920;48.944;9.148;2023-11-22T01:09:00;3.20;;;2.50;;
1839;SDS011;920;48.944;9.148;2023-11-22T01:11:27;3.23;;;2.53;;
1839;SDS011;920;48.944;9.148;2023-11-22T01:13:53;3.83;;;2.90;;
1839;SDS011;920;48.944;9.148;2023-11-22T01:16:20;3.20;;;2.37;;
1839;SDS011;920;48.944;9.148;2023-11-22T01:18:50;3.50;;;2.70;;
1839;SDS011;920;48.944;9.148;2023-11-22T01:21:18;3.63;;;2.50;;
1839;SDS011;920;48.944;9.148;2023-11-22T01:23:44;3.47;;;2.77;;
1839;SDS011;920;48.944;9.148;2023-11-22T01:26:11;3.70;;;2.77;;
1839;SDS011;920;48.944;9.148;2023-11-22T01:28:38;4.03;;;2.53;;
1839;SDS011;920;48.944;9.148;2023-11-22T01:31:10;4.07;;;3.37;;
1839;SDS011;920;48.944;9.148;2023-11-22T01:33:38;4.63;;;2.60;;
1839;SDS011;920;48.944;9.148;2023-11-22T01:36:06;3.30;;;2.50;;
1839;SDS011;920;48.944;9.148;2023-11-22T01:38:34;3.63;;;2.60;;
1839;SDS011;920;48.944;9.148;2023-11-22T01:41:00;3.50;;;2.73;;
1839;SDS011;920;48.944;9.148;2023-11-22T01:43:27;3.00;;;2.40;;
1839;SDS011;920;48.944;9.148;2023-11-22T01:45:54;3.37;;;2.67;;
1839;SDS011;920;48.944;9.148;2023-11-22T01:48:21;3.30;;;2.70;;
1839;SDS011;920;48.944;9.148;2023-11-22T01:50:48;3.53;;;2.53;;
1839;SDS011;920;48.944;9.148;2023-11-22T01:53:16;4.00;;;2.70;;
1839;SDS011;920;48.944;9.148;2023-11-22T01:55:43;3.70;;;2.90;;
1839;SDS011;920;48.944;9.148;2023-11-22T01:58:11;3.57;;;2.60;;
1839;SDS011;920;48.944;9.148;2023-11-22T02:00:42;3.60;;;2.50;;
1839;SDS011;920;48.944;9.148;2023-11-22T02:03:10;4.10;;;2.70;;
1839;SDS011;920;48.944;9.148;2023-11-22T02:05:39;3.30;;;2.50;;
1839;SDS011;920;48.944;9.148;2023-11-22T02:08:07;3.30;;;2.80;;
1839;SDS011;920;48.944;9.148;2023-11-22T02:10:37;3.73;;;2.80;;
1839;SDS011;920;48.944;9.148;2023-11-22T02:13:04;4.43;;;3.20;;
1839;SDS011;920;48.944;9.148;2023-11-22T02:15:33;4.40;;;3.00;;
1839;SDS011;920;48.944;9.148;2023-11-22T02:18:00;4.30;;;2.97;;
1839;SDS011;920;48.944;9.148;2023-11-22T02:20:27;3.77;;;2.77;;
1839;SDS011;920;48.944;9.148;2023-11-22T02:22:53;3.83;;;3.10;;
1839;SDS011;920;48.944;9.148;2023-11-22T02:25:22;3.70;;;2.80;;
1839;SDS011;920;48.944;9.148;2023-11-22T02:27:49;4.00;;;3.50;;
1839;SDS011;920;48.944;9.148;2023-11-22T02:30:16;4.57;;;3.30;;
1839;SDS011;920;48.944;9.148;2023-11-22T02:32:43;5.07;;;2.93;;
1839;SDS011;920;48.944;9.148;2023-11-22T02:35:12;3.97;;;2.80;;
1839;SDS011;920;48.944;9.148;2023-11-22T02:37:41;4.10;;;3.27;;
1839;SDS011;920;48.944;9.148;2023-11-22T02:40:13;4.27;;;3.10;;
1839;SDS011;920;48.944;9.148;2023-11-22T02:42:45;4.00;;;3.10;;
1839;SDS011;920;48.944;9.148;2023-11-22T02:45:12;5.07;;;3.50;;
1839;SDS011;920;48.944;9.148;2023-11-22T02:47:39;4.03;;;3.40;;
1839;SDS011;920;48.944;9.148;2023-11-22T02:50:07;4.20;;;3.30;;
1839;SDS011;920;48.944;9.148;2023-11-22T02:52:34;4.23;;;3.27;;
1839;SDS011;920;48.944;9.148;2023-11-22T02:55:01;4.30;;;3.40;;
1839;SDS011;920;48.944;9.148;2023-11-22T02:57:27;4.93;;;3.50;;
1839;SDS011;920;48.944;9.148;2023-11-22T02:59:56;6.20;;;3.97;;
1839;SDS011;920;48.944;9.148;2023-11-22T03:02:23;4.30;;;3.10;;
1839;SDS011;920;48.944;9.148;2023-11-22T03:04:51;4.10;;;3.13;;
1839;SDS011;920;48.944;9.148;2023-11-22T03:07:18;4.70;;;3.70;;
1839;SDS011;920;48.944;9.148;2023-11-22T03:09:45;5.10;;;3.80;;
1839;SDS011;920;48.944;9.148;2023-11-22T03:12:13;5.87;;;4.00;;
1839;SDS011;920;48.944;9.148;2023-11-22T03:14:43;4.50;;;3.57;;
1839;SDS011;920;48.944;9.148;2023-11-22T03:17:12;4.40;;;3.60;;
1839;SDS011;920;48.944;9.148;2023-11-22T03:19:40;4.40;;;3.20;;
1839;SDS011;920;48.944;9.148;2023-11-22T03:22:10;4.40;;;3.53;;
1839;SDS011;920;48.944;9.148;2023-11-22T03:24:37;4.70;;;3.40;;
1839;SDS011;920;48.944;9.148;2023-11-22T03:27:04;3.83;;;3.43;;
1839;SDS011;920;48.944;9.148;2023-11-22T03:29:31;4.50;;;3.37;;
1839;SDS011;920;48.944;9.148;2023-11-22T03:32:00;4.67;;;3.37;;
1839;SDS011;920;48.944;9.148;2023-11-22T03:34:28;4.87;;;3.13;;
1839;SDS011;920;48.944;9.148;2023-11-22T03:36:55;4.97;;;3.70;;
1839;SDS011;920;48.944;9.148;2023-11-22T03:39:22;4.10;;;3.17;;
1839;SDS011;920;48.944;9.148;2023-11-22T03:41:50;3.93;;;3.07;;
1839;SDS011;920;48.944;9.148;2023-11-22T03:44:17;4.67;;;3.60;;
1839;SDS011;920;48.944;9.148;2023-11-22T03:46:43;4.07;;;3.10;;
1839;SDS011;920;48.944;9.148;2023-11-22T03:49:10;5.20;;;3.50;;
1839;SDS011;920;48.944;9.148;2023-11-22T03:51:42;4.37;;;3.17;;
1839;SDS011;920;48.944;9.148;2023-11-22T03:54:09;3.93;;;3.40;;
1839;SDS011;920;48.944;9.148;2023-11-22T03:56:37;3.90;;;3.30;;
1839;SDS011;920;48.944;9.148;2023-11-22T03:59:04;4.77;;;3.17;;
1839;SDS011;920;48.944;9.148;2023-11-22T04:01:31;4.17;;;3.20;;
1839;SDS011;920;48.944;9.148;2023-11-22T04:03:58;3.80;;;2.90;;
1839;SDS011;920;48.944;9.148;2023-11-22T04:06:25;4.87;;;2.60;;
1839;SDS011;920;48.944;9.148;2023-11-22T04:08:53;3.63;;;2.90;;
1839;SDS011;920;48.944;9.148;2023-11-22T04:11:19;4.67;;;3.10;;
1839;SDS011;920;48.944;9.148;2023-11-22T04:13:46;3.50;;;2.93;;
1839;SDS011;920;48.944;9.148;2023-11-22T04:16:14;3.93;;;2.70;;
1839;SDS011;920;48.944;9.148;2023-11-22T04:18:43;4.00;;;3.00;;
1839;SDS011;920;48.944;9.148;2023-11-22T04:21:10;3.97;;;2.93;;
1839;SDS011;920;48.944;9.148;2023-11-22T04:23:36;6.47;;;2.90;;
1839;SDS011;920;48.944;9.148;2023-11-22T04:26:04;3.47;;;2.70;;
1839;SDS011;920;48.944;9.148;2023-11-22T04:28:32;3.90;;;2.90;;
1839;SDS011;920;48.944;9.148;2023-11-22T04:30:59;4.37;;;2.80;;
1839;SDS011;920;48.944;9.148;2023-11-22T04:33:26;6.07;;;2.77;;
1839;SDS011;920;48.944;9.148;2023-11-22T04:35:53;3.70;;;2.90;;
1839;SDS011;920;48.944;9.148;2023-11-22T04:38:20;3.93;;;2.80;;
1839;SDS011;920;48.944;9.148;2023-11-22T04:40:47;3.00;;;2.43;;
1839;SDS011;920;48.944;9.148;2023-11-22T04:43:15;4.67;;;2.83;;
1839;SDS011;920;48.944;9.148;2023-11-22T04:45:42;3.70;;;3.00;;
1839;SDS011;920;48.944;9.148;2023-11-22T04:48:09;3.93;;;3.10;;
1839;SDS011;920;48.944;9.148;2023-11-22T04:50:35;4.90;;;3.23;;
1839;SDS011;920;48.944;9.148;2023-11-22T04:53:02;3.87;;;2.77;;
1839;SDS011;920;48.944;9.148;2023-11-22T04:55:29;3.40;;;2.50;;
1839;SDS011;920;48.944;9.148;2023-11-22T04:57:59;3.63;;;3.00;;
1839;SDS011;920;48.944;9.148;2023-11-22T05:00:31;3.60;;;2.93;;
1839;SDS011;920;48.944;9.148;2023-11-22T05:02:58;4.57;;;3.07;;
1839;SDS011;920;48.944;9.148;2023-11-22T05:05:25;4.70;;;3.33;;
1839;SDS011;920;48.944;9.148;2023-11-22T05:07:51;3.90;;;2.83;;
1839;SDS011;920;48.944;9.148;2023-11-22T05:10:18;4.33;;;2.67;;
1839;SDS011;920;48.944;9.148;2023-11-22T05:12:45;3.40;;;2.80;;
1839;SDS011;920;48.944;9.148;2023-11-22T05:15:12;5.30;;;2.90;;
1839;SDS011;920;48.944;9.148;2023-11-22T05:17:41;3.83;;;2.87;;
1839;SDS011;920;48.944;9.148;2023-11-22T05:20:08;3.83;;;2.70;;
1839;SDS011;920;48.944;9.148;2023-11-22T05:22:35;4.03;;;2.73;;
1839;SDS011;920;48.944;9.148;2023-11-22T05:25:02;4.60;;;3.40;;
1839;SDS011;920;48.944;9.148;2023-11-22T05:27:30;4.80;;;3.47;;
1839;SDS011;920;48.944;9.148;2023-11-22T05:29:58;5.43;;;3.40;;
1839;SDS011;920;48.944;9.148;2023-11-22T05:32:26;4.40;;;2.93;;
1839;SDS011;920;48.944;9.148;2023-11-22T05:34:54;4.30;;;3.27;;
1839;SDS011;920;48.944;9.148;2023-11-22T05:37:21;3.50;;;2.90;;
1839;SDS011;920;48.944;9.148;2023-11-22T05:39:47;3.80;;;2.87;;
1839;SDS011;920;48.944;9.148;2023-11-22T05:42:14;3.20;;;2.40;;
1839;SDS011;920;48.944;9.148;2023-11-22T05:44:41;4.07;;;3.00;;
1839;SDS011;920;48.944;9.148;2023-11-22T05:47:07;4.77;;;3.30;;
1839;SDS011;920;48.944;9.148;2023-11-22T05:49:34;4.90;;;3.33;;
1839;SDS011;920;48.944;9.148;2023-11-22T05:52:03;4.00;;;3.20;;
1839;SDS011;920;48.944;9.148;2023-11-22T05:54:30;6.17;;;3.30;;
1839;SDS011;920;48.944;9.148;2023-11-22T05:56:57;4.33;;;3.00;;
1839;SDS011;920;48.944;9.148;2023-11-22T05:59:23;5.70;;;3.73;;
1839;SDS011;920;48.944;9.148;2023-11-22T06:01:50;4.83;;;3.53;;
1839;SDS011;920;48.944;9.148;2023-11-22T06:04:17;4.73;;;3.20;;
1839;SDS011;920;48.944;9.148;2023-11-22T06:06:44;3.63;;;3.00;;
1839;SDS011;920;48.944;9.148;2023-11-22T06:09:12;4.30;;;3.27;;
1839;SDS011;920;48.944;9.148;2023-11-22T06:11:40;3.90;;;3.10;;
1839;SDS011;920;48.944;9.148;2023-11-22T06:14:07;4.90;;;3.17;;
1839;SDS011;920;48.944;9.148;2023-11-22T06:16:33;4.30;;;3.30;;
1839;SDS011;920;48.944;9.148;2023-11-22T06:19:00;4.53;;;3.10;;
1839;SDS011;920;48.944;9.148;2023-11-22T06:21:27;5.30;;;3.70;;
1839;SDS011;920;48.944;9.148;2023-11-22T06:23:54;4.57;;;2.93;;
1839;SDS011;920;48.944;9.148;2023-11-22T06:26:24;4.30;;;3.00;;
1839;SDS011;920;48.944;9.148;2023-11-22T06:28:51;4.10;;;2.70;;
1839;SDS011;920;48.944;9.148;2023-11-22T06:31:17;3.50;;;2.90;;
1839;SDS011;920;48.944;9.148;2023-11-22T06:33:44;6.70;;;2.60;;
1839;SDS011;920;48.944;9.148;2023-11-22T06:36:11;5.47;;;2.60;;
1839;SDS011;920;48.944;9.148;2023-11-22T06:38:39;3.30;;;2.40;;
1839;SDS011;920;48.944;9.148;2023-11-22T06:41:06;3.73;;;2.50;;
1839;SDS011;920;48.944;9.148;2023-11-22T06:43:34;4.37;;;2.93;;
1839;SDS011;920;48.944;9.148;2023-11-22T06:46:01;3.90;;;2.30;;
1839;SDS011;920;48.944;9.148;2023-11-22T06:48:31;4.07;;;2.47;;
1839;SDS011;920;48.944;9.148;2023-11-22T06:50:58;3.33;;;2.23;;
1839;SDS011;920;48.944;9.148;2023-11-22T06:53:25;3.50;;;2.60;;
1839;SDS011;920;48.944;9.148;2023-11-22T06:55:51;4.37;;;2.97;;
1839;SDS011;920;48.944;9.148;2023-11-22T06:58:18;3.53;;;2.63;;
1839;SDS011;920;48.944;9.148;2023-11-22T07:00:46;3.00;;;2.20;;
1839;SDS011;920;48.944;9.148;2023-11-22T07:03:13;4.20;;;2.53;;
1839;SDS011;920;48.944;9.148;2023-11-22T07:05:40;3.60;;;2.40;;
1839;SDS011;920;48.944;9.148;2023-11-22T07:08:07;3.90;;;2.80;;
1839;SDS011;920;48.944;9.148;2023-11-22T07:10:36;4.10;;;2.70;;
1839;SDS011;920;48.944;9.148;2023-11-22T07:13:03;3.63;;;2.63;;
1839;SDS011;920;48.944;9.148;2023-11-22T07:15:30;3.97;;;2.50;;
1839;SDS011;920;48.944;9.148;2023-11-22T07:17:58;3.80;;;2.43;;
1839;SDS011;920;48.944;9.148;2023-11-22T07:20:24;4.57;;;2.80;;
1839;SDS011;920;48.944;9.148;2023-11-22T07:22:52;5.43;;;2.90;;
1839;SDS011;920;48.944;9.148;2023-11-22T07:25:20;4.40;;;2.60;;
1839;SDS011;920;48.944;9.148;2023-11-22T07:27:50;4.90;;;2.80;;
1839;SDS011;920;48.944;9.148;2023-11-22T07:30:18;4.87;;;2.97;;
1839;SDS011;920;48.944;9.148;2023-11-22T07:32:48;3.83;;;2.70;;
1839;SDS011;920;48.944;9.148;2023-11-22T07:35:17;3.53;;;2.70;;
1839;SDS011;920;48.944;9.148;2023-11-22T07:37:45;4.23;;;2.67;;
1839;SDS011;920;48.944;9.148;2023-11-22T07:40:13;5.07;;;2.90;;
1839;SDS011;920;48.944;9.148;2023-11-22T07:42:40;3.93;;;2.90;;
1839;SDS011;920;48.944;9.148;2023-11-22T07:45:07;4.17;;;2.87;;
1839;SDS011;920;48.944;9.148;2023-11-22T07:47:36;5.90;;;3.47;;
1839;SDS011;920;48.944;9.148;2023-11-22T07:50:06;5.30;;;3.10;;
1839;SDS011;920;48.944;9.148;2023-11-22T07:52:35;6.17;;;2.83;;
1839;SDS011;920;48.944;9.148;2023-11-22T07:55:03;4.80;;;2.97;;
1839;SDS011;920;48.944;9.148;2023-11-22T07:57:33;5.43;;;3.20;;
1839;SDS011;920;48.944;9.148;2023-11-22T08:00:00;4.93;;;2.77;;
1839;SDS011;920;48.944;9.148;2023-11-22T08:02:37;4.53;;;2.97;;
1839;SDS011;920;48.944;9.148;2023-11-22T08:05:04;5.10;;;3.00;;
1839;SDS011;920;48.944;9.148;2023-11-22T08:07:33;4.40;;;2.80;;
1839;SDS011;920;48.944;9.148;2023-11-22T08:10:01;4.77;;;3.00;;
1839;SDS011;920;48.944;9.148;2023-11-22T08:12:34;3.80;;;2.83;;
1839;SDS011;920;48.944;9.148;2023-11-22T08:15:02;4.90;;;3.33;;
1839;SDS011;920;48.944;9.148;2023-11-22T08:17:29;5.50;;;2.97;;
1839;SDS011;920;48.944;9.148;2023-11-22T08:19:57;4.73;;;2.90;;
1839;SDS011;920;48.944;9.148;2023-11-22T08:22:24;5.60;;;3.70;;
1839;SDS011;920;48.944;9.148;2023-11-22T08:24:54;5.60;;;3.90;;
1839;SDS011;920;48.944;9.148;2023-11-22T08:27:24;4.60;;;3.33;;
1839;SDS011;920;48.944;9.148;2023-11-22T08:29:51;5.67;;;3.17;;
1839;SDS011;920;48.944;9.148;2023-11-22T08:32:17;4.40;;;3.37;;
1839;SDS011;920;48.944;9.148;2023-11-22T08:34:47;4.87;;;3.40;;
1839;SDS011;920;48.944;9.148;2023-11-22T08:37:14;4.90;;;3.43;;
1839;SDS011;920;48.944;9.148;2023-11-22T08:39:40;5.20;;;3.63;;
1839;SDS011;920;48.944;9.148;2023-11-22T08:42:08;5.07;;;3.77;;
1839;SDS011;920;48.944;9.148;2023-11-22T08:44:36;6.23;;;4.27;;
1839;SDS011;920;48.944;9.148;2023-11-22T08:47:03;5.70;;;3.00;;
1839;SDS011;920;48.944;9.148;2023-11-22T08:49:30;5.13;;;3.67;;
1839;SDS011;920;48.944;9.148;2023-11-22T08:51:57;6.70;;;3.60;;
1839;SDS011;920;48.944;9.148;2023-11-22T08:54:24;7.40;;;3.90;;
1839;SDS011;920;48.944;9.148;2023-11-22T08:56:53;4.10;;;3.20;;
1839;SDS011;920;48.944;9.148;2023-11-22T08:59:22;5.20;;;3.67;;
1839;SDS011;920;48.944;9.148;2023-11-22T09:01:50;5.40;;;3.77;;
1839;SDS011;920;48.944;9.148;2023-11-22T09:04:16;4.60;;;3.40;;
1839;SDS011;920;48.944;9.148;2023-11-22T09:06:43;5.70;;;3.80;;
1839;SDS011;920;48.944;9.148;2023-11-22T09:09:12;5.50;;;3.33;;
1839;SDS011;920;48.944;9.148;2023-11-22T09:11:41;5.10;;;3.40;;
1839;SDS011;920;48.944;9.148;2023-11-22T09:14:07;5.63;;;3.27;;
1839;SDS011;920;48.944;9.148;2023-11-22T09:16:35;6.33;;;3.70;;
1839;SDS011;920;48.944;9.148;2023-11-22T09:19:05;4.23;;;3.00;;
1839;SDS011;920;48.944;9.148;2023-11-22T09:21:32;5.37;;;3.83;;
1839;SDS011;920;48.944;9.148;2023-11-22T09:24:00;4.87;;;4.00;;
1839;SDS011;920;48.944;9.148;2023-11-22T09:26:27;4.30;;;3.07;;
1839;SDS011;920;48.944;9.148;2023-11-22T09:28:54;7.50;;;4.20;;
1839;SDS011;920;48.944;9.148;2023-11-22T09:31:21;4.93;;;3.40;;
1839;SDS011;920;48.944;9.148;2023-11-22T09:33:48;5.13;;;3.50;;
1839;SDS011;920;48.944;9.148;2023-11-22T09:36:16;4.00;;;3.17;;
1839;SDS011;920;48.944;9.148;2023-11-22T09:38:43;4.83;;;3.50;;
1839;SDS011;920;48.944;9.148;2023-11-22T09:41:10;5.43;;;4.17;;
1839;SDS011;920;48.944;9.148;2023-11-22T09:43:37;5.67;;;3.73;;
1839;SDS011;920;48.944;9.148;2023-11-22T09:46:05;6.60;;;4.10;;
1839;SDS011;920;48.944;9.148;2023-11-22T09:48:36;5.63;;;3.70;;
1839;SDS011;920;48.944;9.148;2023-11-22T09:51:04;4.80;;;3.47;;
1839;SDS011;920;48.944;9.148;2023-11-22T09:53:38;5.30;;;3.93;;
1839;SDS011;920;48.944;9.148;2023-11-22T09:56:07;6.03;;;3.80;;
1839;SDS011;920;48.944;9.148;2023-11-22T09:58:35;5.77;;;4.07;;
1839;SDS011;920;48.944;9.148;2023-11-22T10:01:04;5.53;;;3.77;;
1839;SDS011;920;48.944;9.148;2023-11-22T10:03:33;5.40;;;3.57;;
1839;SDS011;920;48.944;9.148;2023-11-22T10:05:59;5.77;;;3.23;;
1839;SDS011;920;48.944;9.148;2023-11-22T10:08:29;4.97;;;3.60;;
1839;SDS011;920;48.944;9.148;2023-11-22T10:10:58;5.87;;;4.00;;
1839;SDS011;920;48.944;9.148;2023-11-22T10:13:25;6.10;;;3.73;;
1839;SDS011;920;48.944;9.148;2023-11-22T10:15:52;4.83;;;3.67;;
1839;SDS011;920;48.944;9.148;2023-11-22T10:18:19;5.00;;;3.57;;
1839;SDS011;920;48.944;9.148;2023-11-22T10:20:47;5.80;;;3.87;;
1839;SDS011;920;48.944;9.148;2023-11-22T10:23:15;5.70;;;3.90;;
1839;SDS011;920;48.944;9.148;2023-11-22T10:25:43;6.90;;;4.30;;
1839;SDS011;920;48.944;9.148;2023-11-22T10:28:12;5.33;;;4.23;;
1839;SDS011;920;48.944;9.148;2023-11-22T10:30:39;5.13;;;3.57;;
1839;SDS011;920;48.944;9.148;2023-11-22T10:33:06;7.30;;;3.70;;
1839;SDS011;920;48.944;9.148;2023-11-22T10:35:33;5.70;;;4.20;;
1839;SDS011;920;48.944;9.148;2023-11-22T10:38:00;5.53;;;4.20;;
1839;SDS011;920;48.944;9.148;2023-11-22T10:40:28;5.97;;;4.17;;
1839;SDS011;920;48.944;9.148;2023-11-22T10:42:55;5.70;;;4.00;;
1839;SDS011;920;48.944;9.148;2023-11-22T10:45:24;6.13;;;3.80;;
1839;SDS011;920;48.944;9.148;2023-11-22T10:47:53;4.43;;;3.60;;
1839;SDS011;920;48.944;9.148;2023-11-22T10:50:20;5.60;;;3.97;;
1839;SDS011;920;48.944;9.148;2023-11-22T10:52:47;6.33;;;4.17;;
1839;SDS011;920;48.944;9.148;2023-11-22T10:55:17;14.10;;;9.00;;
1839;SDS011;920;48.944;9.148;2023-11-22T10:57:45;8.90;;;7.70;;
1839;SDS011;920;48.944;9.148;2023-11-22T11:00:15;10.23;;;7.97;;
1839;SDS011;920;48.944;9.148;2023-11-22T11:02:45;6.27;;;5.53;;
1839;SDS011;920;48.944;9.148;2023-11-22T11:05:18;10.73;;;5.17;;
1839;SDS011;920;48.944;9.148;2023-11-22T11:07:54;6.50;;;4.40;;
1839;SDS011;920;48.944;9.148;2023-11-22T11:10:24;6.07;;;4.10;;
1839;SDS011;920;48.944;9.148;2023-11-22T11:12:51;5.67;;;3.77;;
1839;SDS011;920;48.944;9.148;2023-11-22T11:15:19;5.47;;;4.10;;
1839;SDS011;920;48.944;9.148;2023-11-22T11:17:48;5.70;;;3.80;;
1839;SDS011;920;48.944;9.148;2023-11-22T11:20:16;5.03;;;3.80;;
1839;SDS011;920;48.944;9.148;2023-11-22T11:22:46;5.00;;;3.80;;
1839;SDS011;920;48.944;9.148;2023-11-22T11:25:13;5.40;;;4.00;;
1839;SDS011;920;48.944;9.148;2023-11-22T11:27:41;5.80;;;3.90;;
1839;SDS011;920;48.944;9.148;2023-11-22T11:33:09;6.57;;;4.83;;
1839;SDS011;920;48.944;9.148;2023-11-22T11:35:38;6.77;;;4.60;;
1839;SDS011;920;48.944;9.148;2023-11-22T11:38:05;5.47;;;4.00;;
1839;SDS011;920;48.944;9.148;2023-11-22T11:40:34;5.50;;;4.17;;
1839;SDS011;920;48.944;9.148;2023-11-22T11:43:01;5.50;;;3.70;;
1839;SDS011;920;48.944;9.148;2023-11-22T11:45:28;6.40;;;4.00;;
1839;SDS011;920;48.944;9.148;2023-11-22T11:47:56;5.67;;;3.97;;
1839;SDS011;920;48.944;9.148;2023-11-22T11:50:24;5.73;;;4.20;;
1839;SDS011;920;48.944;9.148;2023-11-22T11:52:51;6.47;;;5.23;;
1839;SDS011;920;48.944;9.148;2023-11-22T11:55:18;5.50;;;4.50;;
1839;SDS011;920;48.944;9.148;2023-11-22T11:57:45;5.33;;;4.07;;
1839;SDS011;920;48.944;9.148;2023-11-22T12:00:13;5.43;;;4.07;;
1839;SDS011;920;48.944;9.148;2023-11-22T12:02:40;5.67;;;4.23;;
1839;SDS011;920;48.944;9.148;2023-11-22T12:05:07;5.93;;;4.30;;
1839;SDS011;920;48.944;9.148;2023-11-22T12:07:36;7.43;;;4.83;;
1839;SDS011;920;48.944;9.148;2023-11-22T12:10:03;7.57;;;4.67;;
1839;SDS011;920;48.944;9.148;2023-11-22T12:12:31;5.50;;;4.30;;
1839;SDS011;920;48.944;9.148;2023-11-22T12:14:58;5.77;;;4.37;;
1839;SDS011;920;48.944;9.148;2023-11-22T12:17:25;5.90;;;4.60;;
1839;SDS011;920;48.944;9.148;2023-11-22T12:19:52;6.50;;;4.70;;
1839;SDS011;920;48.944;9.148;2023-11-22T12:22:18;6.90;;;4.83;;
1839;SDS011;920;48.944;9.148;2023-11-22T12:24:47;6.73;;;4.50;;
1839;SDS011;920;48.944;9.148;2023-11-22T12:27:13;5.67;;;4.60;;
1839;SDS011;920;48.944;9.148;2023-11-22T12:29:40;6.47;;;5.03;;
1839;SDS011;920;48.944;9.148;2023-11-22T12:32:07;8.20;;;4.87;;
1839;SDS011;920;48.944;9.148;2023-11-22T12:34:34;6.50;;;4.67;;
1839;SDS011;920;48.944;9.148;2023-11-22T12:37:00;7.13;;;4.63;;
1839;SDS011;920;48.944;9.148;2023-11-22T12:39:27;6.60;;;4.53;;
1839;SDS011;920;48.944;9.148;2023-11-22T12:41:56;6.33;;;4.60;;
1839;SDS011;920;48.944;9.148;2023-11-22T12:44:23;6.30;;;4.77;;
1839;SDS011;920;48.944;9.148;2023-11-22T12:46:50;5.97;;;4.50;;
1839;SDS011;920;48.944;9.148;2023-11-22T12:49:22;5.80;;;4.43;;
1839;SDS011;920;48.944;9.148;2023-11-22T12:51:49;6.50;;;4.30;;
1839;SDS011;920;48.944;9.148;2023-11-22T12:54:17;6.30;;;4.30;;
1839;SDS011;920;48.944;9.148;2023-11-22T12:56:46;7.60;;;4.80;;
1839;SDS011;920;48.944;9.148;2023-11-22T12:59:16;5.83;;;4.57;;
1839;SDS011;920;48.944;9.148;2023-11-22T13:01:44;6.30;;;4.60;;
1839;SDS011;920;48.944;9.148;2023-11-22T13:04:10;6.00;;;4.47;;
1839;SDS011;920;48.944;9.148;2023-11-22T13:06:40;5.63;;;4.60;;
1839;SDS011;920;48.944;9.148;2023-11-22T13:09:06;8.10;;;5.60;;
1839;SDS011;920;48.944;9.148;2023-11-22T13:11:39;5.53;;;4.50;;
1839;SDS011;920;48.944;9.148;2023-11-22T13:14:06;5.60;;;4.47;;
1839;SDS011;920;48.944;9.148;2023-11-22T13:16:35;5.27;;;4.40;;
1839;SDS011;920;48.944;9.148;2023-11-22T13:19:04;5.20;;;4.50;;
1839;SDS011;920;48.944;9.148;2023-11-22T13:21:31;5.87;;;4.40;;
1839;SDS011;920;48.944;9.148;2023-11-22T13:23:58;5.60;;;4.17;;
1839;SDS011;920;48.944;9.148;2023-11-22T13:26:25;5.50;;;4.27;;
1839;SDS011;920;48.944;9.148;2023-11-22T13:28:52;6.07;;;4.83;;
1839;SDS011;920;48.944;9.148;2023-11-22T13:31:21;5.57;;;4.57;;
1839;SDS011;920;48.944;9.148;2023-11-22T13:33:49;6.20;;;4.73;;
1839;SDS011;920;48.944;9.148;2023-11-22T13:36:16;7.20;;;4.97;;
1839;SDS011;920;48.944;9.148;2023-11-22T13:38:42;6.73;;;5.30;;
1839;SDS011;920;48.944;9.148;2023-11-22T13:41:09;8.53;;;5.83;;
1839;SDS011;920;48.944;9.148;2023-11-22T13:43:36;8.67;;;5.43;;
1839;SDS011;920;48.944;9.148;2023-11-22T13:46:03;6.13;;;5.30;;
1839;SDS011;920;48.944;9.148;2023-11-22T13:48:30;13.33;;;5.87;;
1839;SDS011;920;48.944;9.148;2023-11-22T13:50:59;9.93;;;5.30;;
1839;SDS011;920;48.944;9.148;2023-11-22T13:53:26;6.60;;;5.07;;
1839;SDS011;920;48.944;9.148;2023-11-22T13:55:57;6.43;;;4.60;;
1839;SDS011;920;48.944;9.148;2023-11-22T13:58:25;8.40;;;5.27;;
1839;SDS011;920;48.944;9.148;2023-11-22T14:00:52;7.37;;;5.93;;
1839;SDS011;920;48.944;9.148;2023-11-22T14:03:19;6.17;;;5.13;;
1839;SDS011;920;48.944;9.148;2023-11-22T14:05:47;7.00;;;5.07;;
1839;SDS011;920;48.944;9.148;2023-11-22T14:08:15;7.00;;;5.10;;
1839;SDS011;920;48.944;9.148;2023-11-22T14:10:42;6.40;;;4.80;;
1839;SDS011;920;48.944;9.148;2023-11-22T14:13:10;5.67;;;4.47;;
1839;SDS011;920;48.944;9.148;2023-11-22T14:15:37;6.90;;;5.40;;
1839;SDS011;920;48.944;9.148;2023-11-22T14:18:04;5.50;;;4.40;;
1839;SDS011;920;48.944;9.148;2023-11-22T14:20:31;6.17;;;4.63;;
1839;SDS011;920;48.944;9.148;2023-11-22T14:22:59;6.23;;;4.60;;
1839;SDS011;920;48.944;9.148;2023-11-22T14:25:27;5.83;;;4.53;;
1839;SDS011;920;48.944;9.148;2023-11-22T14:27:54;6.00;;;4.40;;
1839;SDS011;920;48.944;9.148;2023-11-22T14:30:22;5.07;;;4.00;;
1839;SDS011;920;48.944;9.148;2023-11-22T14:32:51;6.10;;;4.23;;
1839;SDS011;920;48.944;9.148;2023-11-22T14:35:18;6.77;;;4.87;;
1839;SDS011;920;48.944;9.148;2023-11-22T14:37:45;5.43;;;4.43;;
1839;SDS011;920;48.944;9.148;2023-11-22T14:40:12;8.87;;;4.60;;
1839;SDS011;920;48.944;9.148;2023-11-22T14:42:41;5.63;;;4.60;;
1839;SDS011;920;48.944;9.148;2023-11-22T14:45:09;6.30;;;4.70;;
1839;SDS011;920;48.944;9.148;2023-11-22T14:47:37;5.80;;;4.30;;
1839;SDS011;920;48.944;9.148;2023-11-22T14:50:05;5.40;;;4.00;;
1839;SDS011;920;48.944;9.148;2023-11-22T14:52:36;4.73;;;4.10;;
1839;SDS011;920;48.944;9.148;2023-11-22T14:55:03;5.57;;;4.60;;
1839;SDS011;920;48.944;9.148;2023-11-22T14:57:30;6.83;;;4.87;;
1839;SDS011;920;48.944;9.148;2023-11-22T14:59:58;6.23;;;4.37;;
1839;SDS011;920;48.944;9.148;2023-11-22T15:02:25;6.97;;;4.83;;
1839;SDS011;920;48.944;9.148;2023-11-22T15:04:52;6.00;;;4.60;;
1839;SDS011;920;48.944;9.148;2023-11-22T15:07:18;8.63;;;4.73;;
1839;SDS011;920;48.944;9.148;2023-11-22T15:09:45;6.50;;;4.93;;
1839;SDS011;920;48.944;9.148;2023-11-22T15:12:12;6.00;;;4.87;;
1839;SDS011;920;48.944;9.148;2023-11-22T15:14:39;6.57;;;4.90;;
1839;SDS011;920;48.944;9.148;2023-11-22T15:17:07;5.40;;;4.33;;
1839;SDS011;920;48.944;9.148;2023-11-22T15:19:34;6.50;;;4.83;;
1839;SDS011;920;48.944;9.148;2023-11-22T15:22:03;5.60;;;4.17;;
1839;SDS011;920;48.944;9.148;2023-11-22T15:24:31;5.30;;;4.03;;
1839;SDS011;920;48.944;9.148;2023-11-22T15:26:57;5.80;;;4.43;;
1839;SDS011;920;48.944;9.148;2023-11-22T15:29:24;5.93;;;4.43;;
1839;SDS011;920;48.944;9.148;2023-11-22T15:31:51;5.70;;;4.40;;
1839;SDS011;920;48.944;9.148;2023-11-22T15:34:21;6.17;;;4.40;;